Accueil
METAR-TAF:

METAR-TAF

Aéroports :

Malatya, Turquie

latitude: 38-26N, longitude: 038-05E, altitude: 862 m

Observation

Le bulletin a été fait il y a 36 minutes, à 00:50 UTC
Vent 3 kt de ouest, variant entre sud/sud-ouest et nord
Température 1°C
Humidité 93%
Pression 1022 hPa
Visibilité: 7000 m
Quelques nuages à une hauteur de 4000 ft
Nuages fragmentés à une hauteur de 20000 ft

METAR: LTAT 210050Z 27003KT 210V350 7000 FEW040 BKN200 01/M00 Q1022 NOSIG

Heure: 04:26 (01:26 UTC)

Prévision

Le bulletin a été fait il y a 2 heures et 46 minutes, à 22:40 UTC
Prévision valable du 21 à 00 UTC au 21 à 24 UTC
Vent 2 kt de direction variable
Visibilité: 7000 m
Quelques nuages à une hauteur de 4000 ft
Nuages fragmentés à une hauteur de 20000 ft
Probabilité 30% :
Temporairement
du 21 à 03 UTC au 21 à 07 UTC
Visibilité: 4000 m
brume

TAF: LTAT 202240Z 2100/2124 VRB02KT 7000 FEW040 BKN200 PROB30 TEMPO 2103/2107 4000 BR

Observations et prévisions météorologiques de plus de 4000 aéroports (messages METAR et TAF).

Les stations disponibles sont représentées par des disques jaunes et rouges sur la carte.

Passer la souris dessus pour voir le nom de la station.

Cliquer dessus pour voir les observations et prévisions météorologiques.

Pour changer de carte: cliquez sur les boutons verts avec une croix noire pour zoomer, sur le bouton vert avec un tiret pour effectuer un zoom arrière, ou sur les flèches vertes pour les cartes adjacentes.


METAR-TAF: